»·PEaware :: DAL839 KDCA-KATL

DAL839 :: KDCA-KATL

FLIGHT INFORMATION

Flight Status: Arrived
Operator:
Delta Air Lines
More flights by this operator :: More flights under this callsign
Pilot: James B. (24167)
Aircraft: AIRBUS A319
(A319)
More flights by this aircraft type
Origin: KDCA Ronald Reagan Washington Natl
United States
Destination: KATL Hartsfield-Jackson Atlanta
United States
More flights between these airports :: More routes between these airports
Route: CLTCH2 FLASK OZZZI1
File this flight plan on PilotEdge
Remarks:
Altitude:
(Current/Filed)
38,000ft
Speed:
(Current/Filed)
456kts
Departed: 04-Nov-19 03:16 AM
Arrived: 04-Nov-19 04:45 AM
Distance/Time
Traveled:
475nm/1:29
Distance/Time
To Go:
Arrived

Flight Plot

Page will automatically refresh every two minutes.

Flight plan parsing failed; only flown route is shown


Map Options




Map Legend


Flown Route
Filed Route
Departure Airport
Arrival Airport
Navaid (VOR, NDB)
Fix

Horizontal Profiles

Position Reports

Time Latitude Longitude Heading Altitude Ground
Speed
04-Nov-19 02:28 38.852566 -77.041218 199 25ft 0kts
04-Nov-19 02:29 38.852566 -77.041218 199 25ft 0kts
04-Nov-19 02:30 38.852566 -77.041218 199 25ft 0kts
04-Nov-19 02:31 38.852566 -77.041218 199 25ft 0kts
04-Nov-19 02:32 38.852566 -77.041218 199 25ft 0kts
04-Nov-19 02:33 38.852566 -77.041218 199 25ft 0kts
04-Nov-19 02:34 38.852566 -77.041218 199 25ft 0kts
04-Nov-19 02:35 38.852566 -77.041218 199 25ft 0kts
04-Nov-19 02:36 38.852566 -77.041218 199 25ft 0kts
04-Nov-19 02:37 38.852566 -77.041218 199 25ft 0kts
04-Nov-19 02:38 38.852566 -77.041218 199 25ft 0kts
04-Nov-19 02:39 38.852566 -77.041218 199 25ft 0kts
04-Nov-19 02:40 38.852566 -77.041218 199 25ft 0kts
04-Nov-19 02:41 38.852566 -77.041218 199 25ft 0kts
04-Nov-19 02:42 38.852566 -77.041218 199 25ft 0kts
04-Nov-19 02:43 38.852566 -77.041218 199 25ft 0kts
04-Nov-19 02:44 38.852566 -77.041218 199 25ft 0kts
04-Nov-19 02:45 38.852566 -77.041218 199 25ft 0kts
04-Nov-19 02:46 38.852566 -77.041218 199 25ft 0kts
04-Nov-19 02:47 38.852566 -77.041218 199 25ft 0kts
04-Nov-19 02:48 38.852566 -77.041218 199 25ft 0kts
04-Nov-19 02:49 38.852566 -77.041218 199 25ft 0kts
04-Nov-19 02:50 38.852566 -77.041218 199 25ft 0kts
04-Nov-19 02:51 38.852566 -77.041218 199 25ft 0kts
04-Nov-19 02:52 38.852566 -77.041218 199 25ft 0kts
04-Nov-19 02:53 38.852566 -77.041218 199 25ft 0kts
04-Nov-19 02:55 38.852566 -77.041218 199 25ft 0kts
04-Nov-19 02:56 38.852566 -77.041218 199 25ft 0kts
04-Nov-19 02:57 38.852566 -77.041218 199 25ft 0kts
04-Nov-19 02:58 38.852567 -77.041218 199 25ft 0kts
04-Nov-19 02:59 38.852567 -77.041218 199 25ft 0kts
04-Nov-19 03:00 38.852567 -77.041218 199 25ft 0kts
04-Nov-19 03:01 38.852567 -77.041218 199 25ft 0kts
04-Nov-19 03:02 38.852567 -77.041218 199 25ft 0kts
04-Nov-19 03:03 38.852567 -77.041218 199 25ft 0kts
04-Nov-19 03:04 38.852567 -77.041218 199 25ft 0kts
04-Nov-19 03:05 38.852581 -77.041176 254 25ft 1kts
04-Nov-19 03:06 38.852686 -77.041049 167 24ft 2kts
04-Nov-19 03:07 38.853095 -77.041302 89 25ft 2kts
04-Nov-19 03:08 38.853064 -77.041459 70 25ft 0kts
04-Nov-19 03:09 38.853064 -77.041459 70 25ft 0kts
04-Nov-19 03:10 38.853066 -77.041452 70 25ft 0kts
04-Nov-19 03:11 38.852805 -77.039897 168 23ft 11kts
04-Nov-19 03:12 38.848521 -77.039456 176 22ft 18kts
04-Nov-19 03:12 38.844609 -77.039969 170 20ft 16kts
04-Nov-19 03:14 38.842138 -77.037673 122 18ft 7kts
04-Nov-19 03:14 38.842730 -77.036844 355 18ft 9kts
04-Nov-19 03:15 38.871607 -77.041470 340 978ft 159kts
04-Nov-19 03:17 38.910425 -77.094620 299 3790ft 224kts
04-Nov-19 03:17 38.952527 -77.140811 317 5856ft 248kts
04-Nov-19 03:19 38.986396 -77.227952 268 10107ft 257kts
04-Nov-19 03:19 38.959784 -77.300709 218 11896ft 324kts
04-Nov-19 03:20 38.877797 -77.375062 221 13922ft 380kts
04-Nov-19 03:21 38.789950 -77.454734 221 17282ft 382kts
04-Nov-19 03:22 38.706543 -77.543573 231 19582ft 392kts
04-Nov-19 03:23 38.631349 -77.648494 233 21819ft 401kts
04-Nov-19 03:24 38.552945 -77.758491 233 23753ft 412kts
04-Nov-19 03:25 38.473995 -77.869519 233 25528ft 418kts
04-Nov-19 03:26 38.403653 -77.986092 240 27705ft 404kts
04-Nov-19 03:27 38.337344 -78.105479 240 29498ft 400kts
04-Nov-19 03:28 38.269496 -78.227154 239 31228ft 394kts
04-Nov-19 03:29 38.204607 -78.344933 240 33092ft 379kts
04-Nov-19 03:30 38.139622 -78.459463 239 33991ft 384kts
04-Nov-19 03:31 38.070809 -78.570991 239 35168ft 378kts
04-Nov-19 03:32 38.006078 -78.677736 239 36016ft 375kts
04-Nov-19 03:33 37.941092 -78.786771 238 36908ft 371kts
04-Nov-19 03:34 37.876041 -78.894223 239 37505ft 371kts
04-Nov-19 03:35 37.810796 -79.000682 239 38030ft 369kts
04-Nov-19 03:36 37.745874 -79.107336 239 38318ft 368kts
04-Nov-19 03:37 37.682737 -79.210964 240 38338ft 368kts
04-Nov-19 03:38 37.621835 -79.313781 240 38341ft 366kts
04-Nov-19 03:39 37.560413 -79.417203 240 38341ft 366kts
04-Nov-19 03:40 37.499325 -79.519685 240 38341ft 366kts
04-Nov-19 03:41 37.437589 -79.622919 240 38351ft 366kts
04-Nov-19 03:42 37.376381 -79.725220 240 38358ft 366kts
04-Nov-19 03:43 37.314929 -79.827483 240 38358ft 365kts
04-Nov-19 03:44 37.252883 -79.930328 240 38358ft 365kts
04-Nov-19 03:45 37.190747 -80.032930 240 38358ft 364kts
04-Nov-19 03:46 37.129370 -80.133970 240 38358ft 364kts
04-Nov-19 03:47 37.066595 -80.236942 240 38347ft 364kts
04-Nov-19 03:48 36.999060 -80.340374 235 38343ft 370kts
04-Nov-19 03:49 36.923833 -80.437046 234 38340ft 370kts
04-Nov-19 03:50 36.849414 -80.531816 234 38334ft 371kts
04-Nov-19 03:51 36.773251 -80.628540 234 38300ft 371kts
04-Nov-19 03:52 36.698251 -80.724028 234 38287ft 374kts
04-Nov-19 03:53 36.627350 -80.813844 234 38287ft 374kts
04-Nov-19 03:54 36.552671 -80.908122 234 38286ft 374kts
04-Nov-19 03:55 36.479648 -81.000019 234 38312ft 374kts
04-Nov-19 03:56 36.405974 -81.092460 234 38368ft 374kts
04-Nov-19 03:57 36.332357 -81.184555 234 38372ft 374kts
04-Nov-19 03:58 36.255470 -81.280652 234 38370ft 373kts
04-Nov-19 03:59 36.188983 -81.363519 234 38355ft 368kts
04-Nov-19 04:00 36.112885 -81.458178 234 38311ft 368kts
04-Nov-19 04:01 36.036520 -81.552912 233 38300ft 368kts
04-Nov-19 04:02 35.959809 -81.647672 233 38346ft 368kts
04-Nov-19 04:03 35.886835 -81.737748 233 38352ft 369kts
04-Nov-19 04:04 35.812582 -81.828584 233 38358ft 370kts
04-Nov-19 04:05 35.738774 -81.917658 232 38360ft 370kts
04-Nov-19 04:06 35.662714 -82.008569 232 38346ft 368kts
04-Nov-19 04:07 35.586145 -82.099918 232 38335ft 368kts
04-Nov-19 04:08 35.509774 -82.190769 232 38334ft 368kts
04-Nov-19 04:09 35.433629 -82.281094 232 38330ft 369kts
04-Nov-19 04:10 35.359212 -82.373042 234 38317ft 367kts
04-Nov-19 04:11 35.286124 -82.463862 234 38313ft 367kts
04-Nov-19 04:12 35.212845 -82.554613 233 38314ft 369kts
04-Nov-19 04:13 35.138687 -82.645388 232 38314ft 370kts
04-Nov-19 04:14 35.063141 -82.735176 232 38307ft 371kts
04-Nov-19 04:15 34.986826 -82.825485 232 38306ft 370kts
04-Nov-19 04:16 34.910349 -82.915383 231 38306ft 370kts
04-Nov-19 04:17 34.833778 -83.003555 232 38308ft 370kts
04-Nov-19 04:18 34.756380 -83.092846 232 38311ft 370kts
04-Nov-19 04:19 34.678879 -83.182127 231 38312ft 374kts
04-Nov-19 04:20 34.600982 -83.271565 231 38313ft 373kts
04-Nov-19 04:21 34.522967 -83.361095 231 38313ft 373kts
04-Nov-19 04:22 34.445928 -83.449653 231 38307ft 373kts
04-Nov-19 04:23 34.368853 -83.537995 231 38306ft 373kts
04-Nov-19 04:24 34.291460 -83.626437 231 38288ft 374kts
04-Nov-19 04:25 34.212416 -83.711143 229 37276ft 376kts
04-Nov-19 04:26 34.133761 -83.794609 229 36023ft 372kts
04-Nov-19 04:27 34.055830 -83.877781 229 33189ft 380kts
04-Nov-19 04:28 33.974009 -83.961815 224 29458ft 400kts
04-Nov-19 04:29 33.878104 -84.034777 218 25827ft 422kts
04-Nov-19 04:30 33.775967 -84.108170 222 22297ft 419kts
04-Nov-19 04:31 33.733275 -84.224132 269 18872ft 395kts
04-Nov-19 04:32 33.733014 -84.349456 269 15488ft 382kts
04-Nov-19 04:33 33.732944 -84.463756 269 12615ft 360kts
04-Nov-19 04:34 33.732902 -84.584309 269 9859ft 350kts
04-Nov-19 04:35 33.732677 -84.684026 268 8842ft 264kts
04-Nov-19 04:36 33.730622 -84.773224 250 7310ft 258kts
04-Nov-19 04:37 33.671524 -84.791501 137 6457ft 251kts
04-Nov-19 04:38 33.649007 -84.717353 88 5548ft 240kts
04-Nov-19 04:39 33.649688 -84.637529 86 4255ft 226kts
04-Nov-19 04:40 33.649603 -84.567291 86 3126ft 191kts
04-Nov-19 04:41 33.649566 -84.513096 91 2215ft 132kts
04-Nov-19 04:42 33.649556 -84.471272 90 1586ft 125kts
04-Nov-19 04:43 33.649539 -84.430181 90 1003ft 103kts
04-Nov-19 04:44 33.648623 -84.415968 135 983ft 4kts
04-Nov-19 04:45 33.647904 -84.419492 269 979ft 17kts
04-Nov-19 04:46 33.645988 -84.422375 179 984ft 14kts
04-Nov-19 04:47 33.645422 -84.426242 269 999ft 14kts
04-Nov-19 04:48 33.644601 -84.430655 269 1011ft 20kts
04-Nov-19 04:49 33.644493 -84.436953 234 1019ft 12kts
04-Nov-19 04:50 33.640569 -84.437199 169 1017ft 2kts
04-Nov-19 04:51 33.640378 -84.436401 97 1016ft 0kts
04-Nov-19 04:52 33.640378 -84.436401 97 1016ft 0kts
04-Nov-19 04:53 33.640378 -84.436401 97 1016ft 0kts
04-Nov-19 04:54 33.640378 -84.436401 97 1016ft 0kts

Navigation Log

Ident Type
Flight plan parsing failed, navigation log unavailable